Aérodrome :
LOGIN :

S'inscrire | Disclaimer

   EN    FR    IT 

 










Légende :    VFR   VFR Marginal   IFR   IFR Intensif   IFR Très Intensif
Visi : 
Plafond : 
>= 8 km
>= 3000ft
5 à 8 km
1000 à 3000 ft
1500m à 5 km
500 à 1000 ft
800 à 1500m
200 à 500 ft
< 800m
< 200 ft
Symboles :   Orages  Brouillard  Fortes neiges  Fortes précipitations  Vent > 20 kt
SIGMETs :   Divers  Orages  Givrage  Turbulence  Onde Orograph.  Cendres Volcan.







- Altitude de l'aérodrome : 489 ft
- Code IATA : GDN


EPGD - Gdansk

DERNIER METAR :
  • 231930Z 17006KT 130V200 5000 BR BKN010 M06/M07 Q1023 R11/190095

METARs EXPIRÉS :
  • 231900Z 18006KT 150V220 4800 BR FEW007 BKN009 M06/M07 Q1023 R11/190095
  • 231830Z 16005KT 130V200 4900 BR FEW007 SCT009 M06/M07 Q1023 R11/190095
  • 231800Z 19006KT 4900 BR OVC007 M05/M06 Q1023 R11/190095
  • 231730Z 18008KT 5000 BR OVC006 M05/M06 Q1023 R11/190095

TAF TAF EPGD
Valide du 23 à 18h jusqu'au 24 à 18h UTC


231730Z 2318/2418 14007KT 5000 BR BKN007
BECMG 2401/2403 22012KT 2000 -RADZ BR BKN004
TEMPO 2403/2407 0600 SNRA BKN002
PROB40
TEMPO 2403/2408 -FZDZ
TEMPO 2406/2418 0600 -DZ FG BKN001
Pas de NOTAMs connus pour ce terrain.



MET'MAP, la Météo Aéronautique d'un coup d'oeil ! - Copyright ORBIFLY Décembre 2007 - Disclaimer

ORBIFLY MET'MAP TEAM :

Programmation & Développement : Alexandra Zaïnal
Conception & Développement : Baudouin d'Aumeries
Co-Programmation & Développement : Marc-Olivier Méhu
Soutien technique & logistique : Manuel Goepfert

Contact : metmap@orbifly.com




SOURCES & CREDITS :

   NOAA